createdAt,value
2018-11-23T00:00:00.419Z,3.40
2018-11-23T00:01:06.588Z,3.40
2018-11-23T00:02:12.064Z,3.40
2018-11-23T00:03:17.563Z,3.40
2018-11-23T00:04:23.097Z,3.40
2018-11-23T00:05:28.516Z,3.40
2018-11-23T00:06:34.074Z,3.40
2018-11-23T00:07:39.924Z,3.40
2018-11-23T00:08:45.594Z,3.30
2018-11-23T00:09:51.123Z,3.30
2018-11-23T00:10:56.582Z,3.30
2018-11-23T00:12:02.085Z,3.30
2018-11-23T00:13:07.575Z,3.40
2018-11-23T00:14:13.094Z,3.40
2018-11-23T00:15:19.879Z,3.40
2018-11-23T00:16:25.357Z,3.40
2018-11-23T00:17:30.885Z,3.40
2018-11-23T00:18:36.330Z,3.40
2018-11-23T00:19:41.965Z,3.40
2018-11-23T00:20:47.362Z,3.30
2018-11-23T00:21:52.816Z,3.30
2018-11-23T00:22:58.351Z,3.30
2018-11-23T00:24:03.805Z,3.40
2018-11-23T00:25:12.214Z,3.40
2018-11-23T00:26:17.698Z,3.40
2018-11-23T00:27:23.146Z,3.40
2018-11-23T00:28:28.582Z,3.40
2018-11-23T00:29:33.987Z,3.40
2018-11-23T00:30:39.556Z,3.40
2018-11-23T00:31:45.141Z,3.40
2018-11-23T00:32:51.230Z,3.40
2018-11-23T00:33:56.695Z,3.40
2018-11-23T00:35:02.114Z,3.40
2018-11-23T00:36:07.842Z,3.40
2018-11-23T00:37:13.364Z,3.40
2018-11-23T00:38:18.805Z,3.40
2018-11-23T00:39:24.251Z,3.40
2018-11-23T00:40:30.917Z,3.50
2018-11-23T00:41:36.430Z,3.50
2018-11-23T00:42:42.493Z,3.50
2018-11-23T00:43:47.914Z,3.60
2018-11-23T00:44:53.394Z,3.60
2018-11-23T00:45:58.925Z,3.50
2018-11-23T00:47:04.387Z,3.60
2018-11-23T00:48:09.856Z,3.60
2018-11-23T00:49:15.335Z,3.60
2018-11-23T00:50:21.894Z,3.60
2018-11-23T00:51:27.470Z,3.60
2018-11-23T00:52:32.869Z,3.60
2018-11-23T00:53:38.310Z,3.60
2018-11-23T00:54:43.765Z,3.70
2018-11-23T00:55:49.226Z,3.70
2018-11-23T00:56:54.721Z,3.60
2018-11-23T00:58:00.139Z,3.60
2018-11-23T00:59:05.746Z,3.60
2018-11-23T01:00:17.653Z,3.60
2018-11-23T01:01:23.089Z,3.60
2018-11-23T01:02:28.675Z,3.50
2018-11-23T01:03:34.199Z,3.50
2018-11-23T01:04:39.593Z,3.40
2018-11-23T01:05:45.002Z,3.40
2018-11-23T01:06:50.522Z,3.40
2018-11-23T01:07:56.110Z,3.50
2018-11-23T01:09:01.582Z,3.50
2018-11-23T01:10:09.919Z,3.50
2018-11-23T01:11:15.411Z,3.50
2018-11-23T01:12:20.839Z,3.50
2018-11-23T01:13:26.344Z,3.50
2018-11-23T01:14:31.881Z,3.40
2018-11-23T01:15:37.278Z,3.40
2018-11-23T01:16:42.678Z,3.40
2018-11-23T01:17:48.218Z,3.40
2018-11-23T01:18:53.790Z,3.40
2018-11-23T01:19:59.322Z,3.50
2018-11-23T01:21:04.860Z,3.50
2018-11-23T01:22:10.338Z,3.50
2018-11-23T01:23:15.723Z,3.40
2018-11-23T01:24:21.190Z,3.40
2018-11-23T01:25:27.727Z,3.40
2018-11-23T01:26:33.187Z,3.40
2018-11-23T01:27:39.166Z,3.40
2018-11-23T01:28:44.618Z,3.40
2018-11-23T01:29:50.086Z,3.40
2018-11-23T01:30:55.670Z,3.40
2018-11-23T01:32:01.119Z,3.50
2018-11-23T01:33:06.610Z,3.40
2018-11-23T01:34:12.042Z,3.40
2018-11-23T01:35:17.556Z,3.40
2018-11-23T01:36:23.014Z,3.40
2018-11-23T01:37:28.478Z,3.40
2018-11-23T01:38:33.942Z,3.40
2018-11-23T01:39:39.370Z,3.40
2018-11-23T01:40:44.848Z,3.40
2018-11-23T01:41:50.327Z,3.40
2018-11-23T01:42:56.315Z,3.40
2018-11-23T01:44:01.895Z,3.50
2018-11-23T01:45:09.049Z,3.40
2018-11-23T01:46:14.546Z,3.40
2018-11-23T01:47:21.876Z,3.40
2018-11-23T01:48:27.337Z,3.40
2018-11-23T01:49:32.782Z,3.40
2018-11-23T01:50:38.267Z,3.40
2018-11-23T01:51:43.669Z,3.30
2018-11-23T01:52:49.989Z,3.30
2018-11-23T01:53:55.435Z,3.30
2018-11-23T01:55:00.930Z,3.30
2018-11-23T01:56:06.456Z,3.30
2018-11-23T01:57:11.886Z,3.30
2018-11-23T01:58:17.296Z,3.30
2018-11-23T01:59:22.759Z,3.30
2018-11-23T02:00:29.218Z,3.30
2018-11-23T02:01:34.680Z,3.30
2018-11-23T02:02:40.149Z,3.40
2018-11-23T02:03:45.609Z,3.40
2018-11-23T02:04:51.132Z,3.40
2018-11-23T02:05:56.620Z,3.40
2018-11-23T02:07:02.103Z,3.40
2018-11-23T02:08:08.346Z,3.40
2018-11-23T02:09:13.830Z,3.30
2018-11-23T02:10:19.818Z,3.40
2018-11-23T02:11:25.239Z,3.40
2018-11-23T02:12:30.655Z,3.40
2018-11-23T02:13:36.132Z,3.40
2018-11-23T02:14:41.940Z,3.30
2018-11-23T02:15:47.416Z,3.40
2018-11-23T02:16:52.847Z,3.40
2018-11-23T02:17:58.230Z,3.40
2018-11-23T02:19:03.648Z,3.40
2018-11-23T02:20:14.754Z,3.40
2018-11-23T02:21:20.249Z,3.40
2018-11-23T02:22:26.574Z,3.40
2018-11-23T02:23:38.582Z,3.40
2018-11-23T02:24:44.035Z,3.40
2018-11-23T02:25:49.550Z,3.40
2018-11-23T02:26:55.042Z,3.30
2018-11-23T02:28:00.680Z,3.30
2018-11-23T02:29:06.371Z,3.30
2018-11-23T02:30:16.863Z,3.30
2018-11-23T02:31:27.482Z,3.20
2018-11-23T02:32:32.928Z,3.20
2018-11-23T02:33:40.778Z,3.20
2018-11-23T02:34:46.210Z,3.20
2018-11-23T02:35:51.774Z,3.10
2018-11-23T02:36:57.208Z,3.10
2018-11-23T02:38:02.627Z,3.10
2018-11-23T02:39:09.470Z,3.00
2018-11-23T02:40:16.239Z,3.00
2018-11-23T02:41:21.720Z,2.90
2018-11-23T02:42:27.223Z,2.90
2018-11-23T02:43:32.671Z,2.80
2018-11-23T02:44:38.123Z,2.80
2018-11-23T02:45:43.632Z,2.70
2018-11-23T02:46:49.100Z,2.70
2018-11-23T02:47:54.611Z,2.70
2018-11-23T02:49:00.056Z,2.70
2018-11-23T02:50:06.159Z,2.70
2018-11-23T02:51:11.615Z,2.70
2018-11-23T02:52:17.056Z,2.70
2018-11-23T02:53:22.514Z,2.70
2018-11-23T02:54:27.944Z,2.70
2018-11-23T02:55:33.392Z,2.70
2018-11-23T02:56:45.122Z,2.70
2018-11-23T02:57:50.603Z,2.70
2018-11-23T02:58:56.104Z,2.70
2018-11-23T03:00:01.557Z,2.70
2018-11-23T03:01:06.979Z,2.70
2018-11-23T03:02:12.408Z,2.80
2018-11-23T03:03:17.850Z,2.70
2018-11-23T03:04:23.326Z,2.70
2018-11-23T03:05:28.829Z,2.80
2018-11-23T03:06:34.286Z,2.70
2018-11-23T03:07:39.858Z,2.70
2018-11-23T03:08:45.395Z,2.70
2018-11-23T03:09:50.858Z,2.70
2018-11-23T03:10:56.335Z,2.80
2018-11-23T03:12:01.832Z,2.80
2018-11-23T03:13:07.242Z,2.80
2018-11-23T03:14:12.704Z,2.80
2018-11-23T03:15:19.902Z,2.80
2018-11-23T03:16:25.341Z,2.90
2018-11-23T03:17:30.797Z,2.90
2018-11-23T03:18:36.275Z,2.90
2018-11-23T03:19:41.753Z,3.00
2018-11-23T03:20:47.190Z,2.90
2018-11-23T03:21:52.746Z,2.90
2018-11-23T03:22:58.190Z,2.90
2018-11-23T03:24:03.642Z,3.00
2018-11-23T03:25:10.488Z,3.00
2018-11-23T03:26:15.900Z,3.00
2018-11-23T03:27:21.378Z,3.10
2018-11-23T03:28:26.850Z,3.00
2018-11-23T03:29:32.326Z,3.00
2018-11-23T03:30:37.786Z,3.00
2018-11-23T03:31:43.247Z,3.00
2018-11-23T03:32:49.458Z,3.00
2018-11-23T03:33:55.521Z,3.00
2018-11-23T03:35:01.049Z,3.10
2018-11-23T03:36:06.707Z,3.10
2018-11-23T03:37:12.181Z,3.10
2018-11-23T03:38:17.643Z,3.00
2018-11-23T03:39:23.077Z,3.00
2018-11-23T03:40:28.655Z,3.00
2018-11-23T03:41:34.141Z,3.00
2018-11-23T03:42:39.543Z,3.00
2018-11-23T03:43:45.122Z,3.00
2018-11-23T03:44:50.558Z,3.00
2018-11-23T03:45:56.030Z,2.90
2018-11-23T03:47:01.512Z,2.90
2018-11-23T03:48:07.150Z,2.90
2018-11-23T03:49:12.634Z,2.90
2018-11-23T03:50:18.527Z,2.90
2018-11-23T03:51:24.033Z,2.90
2018-11-23T03:52:29.418Z,2.90
2018-11-23T03:53:34.881Z,2.90
2018-11-23T03:54:40.352Z,2.80
2018-11-23T03:55:45.795Z,2.80
2018-11-23T03:56:51.233Z,2.90
2018-11-23T03:57:56.718Z,2.90
2018-11-23T03:59:02.160Z,2.80
2018-11-23T04:00:20.267Z,2.90
2018-11-23T04:01:25.757Z,2.90
2018-11-23T04:02:31.291Z,2.90
2018-11-23T04:03:36.767Z,2.80
2018-11-23T04:04:42.262Z,2.90
2018-11-23T04:05:47.680Z,2.90
2018-11-23T04:06:53.124Z,2.90
2018-11-23T04:07:58.939Z,2.90
2018-11-23T04:09:05.498Z,2.90
2018-11-23T04:10:12.653Z,2.80
2018-11-23T04:11:18.059Z,2.90
2018-11-23T04:12:23.481Z,2.80
2018-11-23T04:13:28.928Z,2.80
2018-11-23T04:14:34.372Z,2.80
2018-11-23T04:15:39.855Z,2.80
2018-11-23T04:16:45.259Z,2.80
2018-11-23T04:17:50.706Z,2.70
2018-11-23T04:18:56.137Z,2.70
2018-11-23T04:20:01.609Z,2.60
2018-11-23T04:21:07.326Z,2.60
2018-11-23T04:22:12.783Z,2.60
2018-11-23T04:23:18.242Z,2.60
2018-11-23T04:24:23.704Z,2.60
2018-11-23T04:25:29.154Z,2.60
2018-11-23T04:26:34.559Z,2.60
2018-11-23T04:27:40.250Z,2.60
2018-11-23T04:28:45.843Z,2.50
2018-11-23T04:29:51.269Z,2.60
2018-11-23T04:30:57.019Z,2.50
2018-11-23T04:32:02.450Z,2.50
2018-11-23T04:33:07.934Z,2.50
2018-11-23T04:34:13.369Z,2.50
2018-11-23T04:35:19.995Z,2.50
2018-11-23T04:36:25.446Z,2.50
2018-11-23T04:37:30.895Z,2.50
2018-11-23T04:38:36.342Z,2.50
2018-11-23T04:39:41.825Z,2.50
2018-11-23T04:40:47.378Z,2.40
2018-11-23T04:41:52.890Z,2.40
2018-11-23T04:42:58.495Z,2.40
2018-11-23T04:44:03.942Z,2.40
2018-11-23T04:45:09.886Z,2.40
2018-11-23T04:46:15.426Z,2.40
2018-11-23T04:47:20.820Z,2.40
2018-11-23T04:48:26.251Z,2.30
2018-11-23T04:49:31.713Z,2.30
2018-11-23T04:50:37.159Z,2.30
2018-11-23T04:51:42.714Z,2.30
2018-11-23T04:52:48.102Z,2.40
2018-11-23T04:53:53.704Z,2.40
2018-11-23T04:54:59.199Z,2.40
2018-11-23T04:56:04.635Z,2.30
2018-11-23T04:57:10.131Z,2.40
2018-11-23T04:58:15.570Z,2.40
2018-11-23T04:59:21.118Z,2.40
2018-11-23T05:00:26.684Z,2.40
2018-11-23T05:01:32.129Z,2.40
2018-11-23T05:02:37.580Z,2.40
2018-11-23T05:03:43.013Z,2.40
2018-11-23T05:04:48.428Z,2.40
2018-11-23T05:05:53.930Z,2.40
2018-11-23T05:06:59.346Z,2.40
2018-11-23T05:08:04.794Z,2.40
2018-11-23T05:09:11.142Z,2.30
2018-11-23T05:10:17.504Z,2.30
2018-11-23T05:11:22.933Z,2.30
2018-11-23T05:12:28.403Z,2.30
2018-11-23T05:13:33.850Z,2.30
2018-11-23T05:14:39.314Z,2.30
2018-11-23T05:15:44.726Z,2.40
2018-11-23T05:16:50.210Z,2.40
2018-11-23T05:17:55.629Z,2.40
2018-11-23T05:19:01.167Z,2.50
2018-11-23T05:20:07.806Z,2.40
2018-11-23T05:21:13.263Z,2.50
2018-11-23T05:22:18.680Z,2.50
2018-11-23T05:23:24.138Z,2.40
2018-11-23T05:24:29.597Z,2.40
2018-11-23T05:25:35.093Z,2.40
2018-11-23T05:26:40.498Z,2.40
2018-11-23T05:27:46.066Z,2.30
2018-11-23T05:28:51.494Z,2.30
2018-11-23T05:29:57.175Z,2.20
2018-11-23T05:31:02.641Z,2.20
2018-11-23T05:32:08.143Z,2.20
2018-11-23T05:33:13.638Z,2.20
2018-11-23T05:34:19.074Z,2.10
2018-11-23T05:35:24.667Z,2.10
2018-11-23T05:36:30.137Z,2.10
2018-11-23T05:37:35.569Z,2.00
2018-11-23T05:38:40.980Z,2.10
2018-11-23T05:39:46.471Z,2.20
2018-11-23T05:40:51.924Z,2.10
2018-11-23T05:41:57.373Z,2.10
2018-11-23T05:43:04.415Z,2.10
2018-11-23T05:44:08.408Z,2.00
2018-11-23T05:45:15.968Z,2.00
2018-11-23T05:46:21.413Z,2.00
2018-11-23T05:47:27.054Z,2.00
2018-11-23T05:48:32.546Z,1.90
2018-11-23T05:49:37.967Z,1.90
2018-11-23T05:50:43.414Z,1.90
2018-11-23T05:51:48.853Z,1.90
2018-11-23T05:52:54.514Z,1.90
2018-11-23T05:54:00.039Z,1.90
2018-11-23T05:55:05.804Z,1.90
2018-11-23T05:56:11.230Z,1.90
2018-11-23T05:57:16.637Z,1.80
2018-11-23T05:58:22.065Z,1.80
2018-11-23T05:59:27.618Z,1.80
2018-11-23T06:00:33.672Z,1.80
2018-11-23T06:01:39.096Z,1.80
2018-11-23T06:02:44.552Z,1.70
2018-11-23T06:03:49.978Z,1.70
2018-11-23T06:04:55.474Z,1.70
2018-11-23T06:06:00.879Z,1.70
2018-11-23T06:07:06.606Z,1.90
2018-11-23T06:08:12.066Z,1.80
2018-11-23T06:09:17.507Z,1.80
2018-11-23T06:10:23.446Z,1.80
2018-11-23T06:11:28.999Z,1.80
2018-11-23T06:12:34.410Z,1.80
2018-11-23T06:13:39.859Z,1.80
2018-11-23T06:14:45.269Z,1.70
2018-11-23T06:15:50.742Z,1.60
2018-11-23T06:16:56.278Z,1.50
2018-11-23T06:18:01.882Z,1.50
2018-11-23T06:19:07.418Z,1.60
2018-11-23T06:20:15.375Z,1.60
2018-11-23T06:21:20.904Z,1.50
2018-11-23T06:22:26.295Z,1.50
2018-11-23T06:23:31.783Z,1.50
2018-11-23T06:24:37.209Z,1.40
2018-11-23T06:25:46.997Z,1.40
2018-11-23T06:26:52.541Z,1.30
2018-11-23T06:27:58.024Z,1.30
2018-11-23T06:29:03.494Z,1.30
2018-11-23T06:30:11.583Z,1.20
2018-11-23T06:31:17.029Z,1.20
2018-11-23T06:32:39.462Z,1.10
2018-11-23T06:33:46.149Z,1.10
2018-11-23T06:34:51.542Z,1.10
2018-11-23T06:35:57.027Z,1.00
2018-11-23T06:37:02.486Z,1.10
2018-11-23T06:38:07.941Z,1.10
2018-11-23T06:39:13.419Z,1.10
2018-11-23T06:40:19.499Z,1.10
2018-11-23T06:41:25.074Z,1.10
2018-11-23T06:42:30.506Z,1.00
2018-11-23T06:43:35.984Z,1.10
2018-11-23T06:44:41.426Z,1.00
2018-11-23T06:45:46.915Z,1.10
2018-11-23T06:46:52.452Z,1.10
2018-11-23T06:47:57.895Z,1.10
2018-11-23T06:49:03.380Z,1.10
2018-11-23T06:50:12.943Z,1.10
2018-11-23T06:51:18.373Z,1.10
2018-11-23T06:52:23.822Z,1.20
2018-11-23T06:53:29.221Z,1.10
2018-11-23T06:54:34.646Z,1.10
2018-11-23T06:55:40.102Z,1.10
2018-11-23T06:56:45.830Z,1.10
2018-11-23T06:57:51.217Z,1.10
2018-11-23T06:58:56.653Z,1.00
2018-11-23T07:00:02.065Z,1.00
2018-11-23T07:01:07.622Z,0.90
2018-11-23T07:02:13.113Z,0.90
2018-11-23T07:03:18.663Z,0.90
2018-11-23T07:04:24.090Z,0.90
2018-11-23T07:05:29.574Z,0.90
2018-11-23T07:06:34.990Z,0.90
2018-11-23T07:07:40.416Z,1.00
2018-11-23T07:08:52.271Z,1.00
2018-11-23T07:09:51.354Z,1.00
2018-11-23T07:11:01.190Z,1.10
2018-11-23T07:12:06.690Z,1.10
2018-11-23T07:13:12.119Z,1.00
2018-11-23T07:14:17.601Z,1.00
2018-11-23T07:15:23.067Z,1.00
2018-11-23T07:16:28.599Z,1.00
2018-11-23T07:17:34.022Z,1.00
2018-11-23T07:18:39.459Z,1.00
2018-11-23T07:19:44.927Z,1.00
2018-11-23T07:20:50.343Z,1.00
2018-11-23T07:21:55.863Z,1.00
2018-11-23T07:23:01.329Z,0.90
2018-11-23T07:24:07.255Z,1.00
2018-11-23T07:25:13.827Z,1.00
2018-11-23T07:26:19.274Z,1.00
2018-11-23T07:27:24.791Z,1.00
2018-11-23T07:28:30.293Z,1.00
2018-11-23T07:29:35.711Z,1.00
2018-11-23T07:30:41.232Z,1.00
2018-11-23T07:31:46.662Z,1.00
2018-11-23T07:32:52.307Z,1.00
2018-11-23T07:33:57.774Z,1.10
2018-11-23T07:35:03.366Z,1.10
2018-11-23T07:36:11.274Z,1.10
2018-11-23T07:37:17.026Z,1.10
2018-11-23T07:38:22.658Z,1.10
2018-11-23T07:39:45.075Z,1.10
2018-11-23T07:41:07.330Z,1.10
2018-11-23T07:42:28.610Z,1.10
2018-11-23T07:43:34.070Z,1.10
2018-11-23T07:44:39.567Z,1.10
2018-11-23T07:45:45.003Z,1.10
2018-11-23T07:46:50.458Z,1.00
2018-11-23T07:47:55.887Z,1.00
2018-11-23T07:49:01.451Z,1.00
2018-11-23T07:50:08.830Z,1.00
2018-11-23T07:51:14.270Z,1.00
2018-11-23T07:52:19.690Z,1.00
2018-11-23T07:53:25.129Z,1.00
2018-11-23T07:54:30.618Z,1.00
2018-11-23T07:55:36.085Z,1.00
2018-11-23T07:56:41.526Z,1.10
2018-11-23T07:57:47.006Z,1.10
2018-11-23T07:58:52.455Z,1.20
2018-11-23T07:59:57.997Z,1.20
2018-11-23T08:01:03.471Z,1.20
2018-11-23T08:02:10.934Z,1.30
2018-11-23T08:03:16.419Z,1.20
2018-11-23T08:04:21.915Z,1.30
2018-11-23T08:05:27.580Z,1.30
2018-11-23T08:06:33.083Z,1.30
2018-11-23T08:07:38.547Z,1.30
2018-11-23T08:08:44.031Z,1.30
2018-11-23T08:09:49.543Z,1.40
2018-11-23T08:10:54.043Z,1.30
2018-11-23T08:11:59.502Z,1.40
2018-11-23T08:13:04.994Z,1.40
2018-11-23T08:14:10.488Z,1.40
2018-11-23T08:15:19.130Z,1.40
2018-11-23T08:16:24.596Z,1.50
2018-11-23T08:17:30.064Z,1.40
2018-11-23T08:18:35.627Z,1.50
2018-11-23T08:19:47.237Z,1.50
2018-11-23T08:20:46.535Z,1.60
2018-11-23T08:21:52.022Z,1.60
2018-11-23T08:22:57.505Z,1.60
2018-11-23T08:24:03.015Z,1.60
2018-11-23T08:25:10.166Z,1.70
2018-11-23T08:26:15.563Z,1.70
2018-11-23T08:27:20.987Z,1.70
2018-11-23T08:28:26.378Z,1.70
2018-11-23T08:29:31.850Z,1.70
2018-11-23T08:30:37.548Z,1.80
2018-11-23T08:31:42.950Z,1.80
2018-11-23T08:32:48.487Z,1.80
2018-11-23T08:33:53.951Z,1.80
2018-11-23T08:34:59.446Z,1.80
2018-11-23T08:36:04.992Z,1.90
2018-11-23T08:37:10.430Z,1.80
2018-11-23T08:38:15.863Z,1.90
2018-11-23T08:39:21.294Z,2.00
2018-11-23T08:40:27.568Z,2.00
2018-11-23T08:41:33.076Z,2.10
2018-11-23T08:42:38.553Z,2.10
2018-11-23T08:43:44.000Z,2.20
2018-11-23T08:44:49.415Z,2.20
2018-11-23T08:45:54.846Z,2.20
2018-11-23T08:47:00.395Z,2.20
2018-11-23T08:48:05.857Z,2.30
2018-11-23T08:49:11.349Z,2.30
2018-11-23T08:50:22.015Z,2.30
2018-11-23T08:51:27.477Z,2.40
2018-11-23T08:52:33.803Z,2.40
2018-11-23T08:53:39.237Z,2.50
2018-11-23T08:54:44.667Z,2.40
2018-11-23T08:55:50.100Z,2.40
2018-11-23T08:56:55.567Z,2.40
2018-11-23T08:58:01.002Z,2.40
2018-11-23T08:59:06.507Z,2.40
2018-11-23T09:00:25.174Z,2.50
2018-11-23T09:01:30.676Z,2.50
2018-11-23T09:02:36.120Z,2.50
2018-11-23T09:03:41.610Z,2.50
2018-11-23T09:04:47.180Z,2.50
2018-11-23T09:05:52.632Z,2.60
2018-11-23T09:06:58.038Z,2.50
2018-11-23T09:08:03.531Z,2.50
2018-11-23T09:09:11.254Z,2.60
2018-11-23T09:10:19.168Z,2.60
2018-11-23T09:11:24.598Z,2.60
2018-11-23T09:12:30.050Z,2.70
2018-11-23T09:13:35.454Z,2.70
2018-11-23T09:14:40.901Z,2.70
2018-11-23T09:15:46.382Z,2.70
2018-11-23T09:16:51.966Z,2.70
2018-11-23T09:17:57.458Z,2.70
2018-11-23T09:19:02.922Z,2.80
2018-11-23T09:20:10.342Z,2.70
2018-11-23T09:21:15.805Z,2.80
2018-11-23T09:22:23.526Z,2.90
2018-11-23T09:23:26.746Z,2.90
2018-11-23T09:24:32.220Z,2.90
2018-11-23T09:25:37.675Z,2.90
2018-11-23T09:26:43.110Z,2.90
2018-11-23T09:27:48.673Z,3.00
2018-11-23T09:28:54.173Z,3.00
2018-11-23T09:29:59.621Z,3.00
2018-11-23T09:31:05.147Z,3.00
2018-11-23T09:32:10.735Z,3.10
2018-11-23T09:33:16.294Z,3.10
2018-11-23T09:34:21.738Z,3.10
2018-11-23T09:35:27.903Z,3.10
2018-11-23T09:36:33.327Z,3.10
2018-11-23T09:37:39.759Z,3.10
2018-11-23T09:38:45.227Z,3.20
2018-11-23T09:39:50.690Z,3.30
2018-11-23T09:40:56.143Z,3.30
2018-11-23T09:42:01.638Z,3.30
2018-11-23T09:43:07.339Z,3.40
2018-11-23T09:44:12.782Z,3.40
2018-11-23T09:45:19.628Z,3.40
2018-11-23T09:46:25.105Z,3.50
2018-11-23T09:47:30.600Z,3.60
2018-11-23T09:48:36.171Z,3.60
2018-11-23T09:49:41.566Z,3.70
2018-11-23T09:50:47.097Z,3.70
2018-11-23T09:51:52.550Z,3.70
2018-11-23T09:52:59.339Z,3.70
2018-11-23T09:54:04.818Z,3.90
2018-11-23T09:55:10.385Z,3.90
2018-11-23T09:56:15.826Z,3.90
2018-11-23T09:57:21.288Z,4.00
2018-11-23T09:58:26.764Z,4.00
2018-11-23T09:59:32.222Z,4.00
2018-11-23T10:00:38.327Z,4.10
2018-11-23T10:01:43.799Z,4.10
2018-11-23T10:02:50.146Z,4.10
2018-11-23T10:03:55.550Z,4.20
2018-11-23T10:05:00.958Z,4.10
2018-11-23T10:06:06.512Z,4.20
2018-11-23T10:07:12.009Z,4.30
2018-11-23T10:08:17.396Z,4.30
2018-11-23T10:09:22.818Z,4.30
2018-11-23T10:10:29.066Z,4.30
2018-11-23T10:11:34.466Z,4.30
2018-11-23T10:12:40.019Z,4.30
2018-11-23T10:13:45.470Z,4.30
2018-11-23T10:14:50.888Z,4.30
2018-11-23T10:15:56.367Z,4.30
2018-11-23T10:17:01.842Z,4.40
2018-11-23T10:18:07.319Z,4.40
2018-11-23T10:19:24.027Z,4.40
2018-11-23T10:20:30.840Z,4.50
2018-11-23T10:21:36.270Z,4.60
2018-11-23T10:22:41.962Z,4.60
2018-11-23T10:23:47.363Z,4.70
2018-11-23T10:24:52.902Z,4.60
2018-11-23T10:25:58.341Z,4.60
2018-11-23T10:27:03.813Z,4.70
2018-11-23T10:28:09.259Z,4.70
2018-11-23T10:29:14.699Z,4.70
2018-11-23T10:30:24.598Z,4.80
2018-11-23T10:31:30.103Z,4.80
2018-11-23T10:32:35.529Z,4.90
2018-11-23T10:33:41.183Z,4.90
2018-11-23T10:34:46.639Z,5.00
2018-11-23T10:35:52.142Z,5.00
2018-11-23T10:36:57.667Z,5.10
2018-11-23T10:38:04.596Z,5.10
2018-11-23T10:39:10.013Z,5.20
2018-11-23T10:40:17.540Z,5.20
2018-11-23T10:41:22.996Z,5.30
2018-11-23T10:42:28.420Z,5.30
2018-11-23T10:43:33.950Z,5.30
2018-11-23T10:44:39.427Z,5.30
2018-11-23T10:45:44.856Z,5.30
2018-11-23T10:46:50.330Z,5.20
2018-11-23T10:47:56.614Z,5.20
2018-11-23T10:49:02.077Z,5.30
2018-11-23T10:50:11.927Z,5.30
2018-11-23T10:51:17.397Z,5.30
2018-11-23T10:52:22.800Z,5.40
2018-11-23T10:53:28.296Z,5.40
2018-11-23T10:54:33.853Z,5.40
2018-11-23T10:55:39.480Z,5.40
2018-11-23T10:56:44.921Z,5.40
2018-11-23T10:57:50.570Z,5.50
2018-11-23T10:58:56.048Z,5.50
2018-11-23T11:00:01.456Z,5.50
2018-11-23T11:01:12.251Z,5.60
2018-11-23T11:02:22.967Z,5.50
2018-11-23T11:03:35.397Z,5.60
2018-11-23T11:04:45.958Z,5.60
2018-11-23T11:05:57.513Z,5.70
2018-11-23T11:07:07.886Z,5.70
2018-11-23T11:08:13.333Z,5.70
2018-11-23T11:09:18.783Z,5.70
2018-11-23T11:10:24.223Z,5.60
2018-11-23T11:11:29.743Z,5.60
2018-11-23T11:12:35.323Z,5.70
2018-11-23T11:13:40.791Z,5.70
2018-11-23T11:14:46.280Z,5.80
2018-11-23T11:15:51.790Z,5.80
2018-11-23T11:16:57.255Z,5.80
2018-11-23T11:18:02.708Z,5.90
2018-11-23T11:19:08.484Z,6.00
2018-11-23T11:20:13.926Z,6.00
2018-11-23T11:21:19.391Z,6.00
2018-11-23T11:22:24.878Z,6.00
2018-11-23T11:23:30.335Z,6.10
2018-11-23T11:24:35.817Z,6.10
2018-11-23T11:25:41.255Z,6.20
2018-11-23T11:26:46.708Z,6.30
2018-11-23T11:27:52.206Z,6.30
2018-11-23T11:28:57.731Z,6.30
2018-11-23T11:30:03.252Z,6.30
2018-11-23T11:31:08.725Z,6.20
2018-11-23T11:32:14.119Z,6.20
2018-11-23T11:33:19.813Z,6.30
2018-11-23T11:34:25.482Z,6.30
2018-11-23T11:35:30.931Z,6.30
2018-11-23T11:36:36.386Z,6.30
2018-11-23T11:37:42.343Z,6.30
2018-11-23T11:38:47.918Z,6.30
2018-11-23T11:39:53.384Z,6.30
2018-11-23T11:40:58.835Z,6.40
2018-11-23T11:42:04.314Z,6.30
2018-11-23T11:43:09.756Z,6.30
2018-11-23T11:44:15.226Z,6.40
2018-11-23T11:45:20.732Z,6.50
2018-11-23T11:46:26.151Z,6.50
2018-11-23T11:47:31.562Z,6.60
2018-11-23T11:48:37.019Z,6.60
2018-11-23T11:49:42.438Z,6.60
2018-11-23T11:50:47.882Z,6.70
2018-11-23T11:51:53.362Z,6.60
2018-11-23T11:52:58.873Z,6.70
2018-11-23T11:54:04.346Z,6.70
2018-11-23T11:55:12.841Z,6.80
2018-11-23T11:56:18.262Z,6.80
2018-11-23T11:57:23.705Z,6.80
2018-11-23T11:58:29.205Z,6.80
2018-11-23T11:59:34.663Z,6.80
2018-11-23T12:00:40.161Z,6.80
2018-11-23T12:01:45.711Z,6.80
2018-11-23T12:02:51.134Z,6.80
2018-11-23T12:03:57.194Z,6.80
2018-11-23T12:05:02.638Z,6.80
2018-11-23T12:06:08.119Z,6.90
2018-11-23T12:07:13.550Z,7.00
2018-11-23T12:08:19.078Z,7.00
2018-11-23T12:09:24.539Z,7.00
2018-11-23T12:10:29.964Z,7.00
2018-11-23T12:11:35.399Z,7.00
2018-11-23T12:12:40.903Z,7.00
2018-11-23T12:13:46.331Z,7.00
2018-11-23T12:14:51.900Z,7.00
2018-11-23T12:15:57.337Z,7.00
2018-11-23T12:17:02.850Z,7.00
2018-11-23T12:18:08.323Z,6.90
2018-11-23T12:19:13.893Z,7.00
2018-11-23T12:20:20.898Z,7.00
2018-11-23T12:21:26.309Z,6.90
2018-11-23T12:22:32.106Z,6.90
2018-11-23T12:23:37.547Z,6.90
2018-11-23T12:24:43.162Z,6.90
2018-11-23T12:25:48.656Z,6.90
2018-11-23T12:26:54.110Z,6.80
2018-11-23T12:27:59.578Z,6.80
2018-11-23T12:29:05.117Z,6.60
2018-11-23T12:30:14.434Z,6.60
2018-11-23T12:31:19.965Z,6.40
2018-11-23T12:32:25.356Z,6.30
2018-11-23T12:33:30.815Z,6.30
2018-11-23T12:34:36.301Z,6.20
2018-11-23T12:35:41.754Z,6.10
2018-11-23T12:36:48.360Z,6.10
2018-11-23T12:37:53.782Z,6.10
2018-11-23T12:38:59.202Z,6.00
2018-11-23T12:40:08.034Z,6.10
2018-11-23T12:41:13.673Z,6.00
2018-11-23T12:42:19.086Z,6.20
2018-11-23T12:43:24.588Z,6.20
2018-11-23T12:44:29.986Z,6.30
2018-11-23T12:45:35.422Z,6.40
2018-11-23T12:46:40.871Z,6.40
2018-11-23T12:47:46.360Z,6.40
2018-11-23T12:48:51.771Z,6.50
2018-11-23T12:49:57.219Z,6.50
2018-11-23T12:51:02.670Z,6.60
2018-11-23T12:52:08.164Z,6.70
2018-11-23T12:53:13.586Z,6.70
2018-11-23T12:54:19.052Z,6.70
2018-11-23T12:55:24.522Z,6.70
2018-11-23T12:56:29.950Z,6.70
2018-11-23T12:57:35.371Z,6.70
2018-11-23T12:58:40.825Z,6.70
2018-11-23T12:59:46.276Z,6.70
2018-11-23T13:00:51.786Z,6.60
2018-11-23T13:01:57.234Z,6.60
2018-11-23T13:03:04.002Z,6.60
2018-11-23T13:04:09.433Z,6.60
2018-11-23T13:05:14.839Z,6.60
2018-11-23T13:06:20.296Z,6.60
2018-11-23T13:07:25.758Z,6.60
2018-11-23T13:08:31.170Z,6.60
2018-11-23T13:09:36.588Z,6.50
2018-11-23T13:10:43.030Z,6.50
2018-11-23T13:11:47.562Z,6.50
2018-11-23T13:12:53.466Z,6.50
2018-11-23T13:13:58.942Z,6.50
2018-11-23T13:15:04.562Z,6.50
2018-11-23T13:16:10.004Z,6.50
2018-11-23T13:17:15.511Z,6.50
2018-11-23T13:18:21.086Z,6.50
2018-11-23T13:19:26.614Z,6.50
2018-11-23T13:20:32.079Z,6.50
2018-11-23T13:21:37.475Z,6.50
2018-11-23T13:22:42.967Z,6.50
2018-11-23T13:23:48.486Z,6.50
2018-11-23T13:24:53.951Z,6.50
2018-11-23T13:25:59.379Z,6.50
2018-11-23T13:27:04.901Z,6.50
2018-11-23T13:28:10.314Z,6.50
2018-11-23T13:29:16.428Z,6.60
2018-11-23T13:30:23.244Z,6.50
2018-11-23T13:31:28.664Z,6.50
2018-11-23T13:32:34.108Z,6.50
2018-11-23T13:33:39.563Z,6.50
2018-11-23T13:34:45.135Z,6.60
2018-11-23T13:35:50.596Z,6.60
2018-11-23T13:36:56.060Z,6.60
2018-11-23T13:38:01.485Z,6.60
2018-11-23T13:39:08.556Z,6.60
2018-11-23T13:40:16.347Z,6.60
2018-11-23T13:41:21.855Z,6.60
2018-11-23T13:42:27.353Z,6.50
2018-11-23T13:43:32.800Z,6.50
2018-11-23T13:44:38.446Z,6.50
2018-11-23T13:45:43.882Z,6.50
2018-11-23T13:46:49.335Z,6.40
2018-11-23T13:47:54.848Z,6.40
2018-11-23T13:49:00.315Z,6.50
2018-11-23T13:50:07.758Z,6.50
2018-11-23T13:51:13.222Z,6.40
2018-11-23T13:52:18.688Z,6.40
2018-11-23T13:53:24.126Z,6.50
2018-11-23T13:54:29.583Z,6.50
2018-11-23T13:55:34.973Z,6.50
2018-11-23T13:56:40.478Z,6.50
2018-11-23T13:57:45.911Z,6.50
2018-11-23T13:58:53.228Z,6.40
2018-11-23T13:59:58.877Z,6.40
2018-11-23T14:01:04.594Z,6.50
2018-11-23T14:02:10.057Z,6.40
2018-11-23T14:03:15.989Z,6.40
2018-11-23T14:04:21.842Z,6.40
2018-11-23T14:05:28.942Z,6.40
2018-11-23T14:06:34.865Z,6.40
2018-11-23T14:07:42.371Z,6.40
2018-11-23T14:08:48.336Z,6.40
2018-11-23T14:09:53.835Z,6.30
2018-11-23T14:10:59.250Z,6.30
2018-11-23T14:12:04.764Z,6.30
2018-11-23T14:13:11.586Z,6.30
2018-11-23T14:14:15.718Z,6.20
2018-11-23T14:15:22.421Z,6.20
2018-11-23T14:16:27.866Z,6.20
2018-11-23T14:17:33.335Z,6.20
2018-11-23T14:18:38.968Z,6.20
2018-11-23T14:19:44.384Z,6.20
2018-11-23T14:20:49.899Z,6.20
2018-11-23T14:21:55.371Z,6.20
2018-11-23T14:23:01.012Z,6.20
2018-11-23T14:24:07.040Z,6.30
2018-11-23T14:25:14.243Z,6.20
2018-11-23T14:26:19.810Z,6.20
2018-11-23T14:27:25.380Z,6.20
2018-11-23T14:28:30.879Z,6.30
2018-11-23T14:29:36.435Z,6.20
2018-11-23T14:30:42.000Z,6.20
2018-11-23T14:31:47.425Z,6.20
2018-11-23T14:32:53.138Z,6.10
2018-11-23T14:33:58.606Z,6.10
2018-11-23T14:35:04.163Z,6.10
2018-11-23T14:36:09.810Z,6.10